Terminal Aerodrome Forecast
Issued by NWS Mt. Holly, NJ

Home | Current Version | Previous Version | Text Only | Print | Product List | Glossary On
Versions: 1 2 3 4 5 6 7 8 9 10 11 12 13 14 15 16 17 18 19 20
220
FTUS41 KPHI 132018 AAA
TAFRDG
TAF AMD
KRDG 132018Z 1320/1418 31022G32KT P6SM BKN060
      TEMPO 1320/1322 5SM -SHSN BKN035
     FM140000 31012G20KT P6SM SCT060
     FM140800 31008KT P6SM SKC=

USA.gov is the U.S. government's official web portal to all federal, state and local government web resources and services.